sensor_id;sensor_type;location;lat;lon;timestamp;P1;durP1;ratioP1;P2;durP2;ratioP2
4903;SDS011;2467;48.142;11.616;2023-09-18T00:00:12;56.78;;;51.08;;
4903;SDS011;2467;48.142;11.616;2023-09-18T00:00:46;34.88;;;31.42;;
4903;SDS011;2467;48.142;11.616;2023-09-18T00:01:21;41.58;;;37.60;;
4903;SDS011;2467;48.142;11.616;2023-09-18T00:01:53;52.10;;;47.20;;
4903;SDS011;2467;48.142;11.616;2023-09-18T00:02:26;46.90;;;42.20;;
4903;SDS011;2467;48.142;11.616;2023-09-18T00:02:59;37.65;;;34.03;;
4903;SDS011;2467;48.142;11.616;2023-09-18T00:03:34;25.25;;;22.98;;
4903;SDS011;2467;48.142;11.616;2023-09-18T00:04:06;24.73;;;22.25;;
4903;SDS011;2467;48.142;11.616;2023-09-18T00:04:40;22.50;;;20.45;;
4903;SDS011;2467;48.142;11.616;2023-09-18T00:05:12;16.65;;;15.00;;
4903;SDS011;2467;48.142;11.616;2023-09-18T00:05:47;10.07;;;9.20;;
4903;SDS011;2467;48.142;11.616;2023-09-18T00:06:20;10.52;;;9.45;;
4903;SDS011;2467;48.142;11.616;2023-09-18T00:06:54;8.15;;;7.30;;
4903;SDS011;2467;48.142;11.616;2023-09-18T00:07:26;7.72;;;7.13;;
4903;SDS011;2467;48.142;11.616;2023-09-18T00:07:58;8.95;;;8.05;;
4903;SDS011;2467;48.142;11.616;2023-09-18T00:08:33;7.97;;;7.28;;
4903;SDS011;2467;48.142;11.616;2023-09-18T00:09:05;8.23;;;7.50;;
4903;SDS011;2467;48.142;11.616;2023-09-18T00:09:37;8.93;;;8.10;;
4903;SDS011;2467;48.142;11.616;2023-09-18T00:10:09;8.00;;;7.40;;
4903;SDS011;2467;48.142;11.616;2023-09-18T00:10:43;9.02;;;8.20;;
4903;SDS011;2467;48.142;11.616;2023-09-18T00:11:19;7.53;;;6.95;;
4903;SDS011;2467;48.142;11.616;2023-09-18T00:11:51;6.95;;;6.40;;
4903;SDS011;2467;48.142;11.616;2023-09-18T00:12:24;7.10;;;6.50;;
4903;SDS011;2467;48.142;11.616;2023-09-18T00:12:56;7.88;;;7.38;;
4903;SDS011;2467;48.142;11.616;2023-09-18T00:13:29;7.38;;;6.47;;
4903;SDS011;2467;48.142;11.616;2023-09-18T00:14:00;6.82;;;6.32;;
4903;SDS011;2467;48.142;11.616;2023-09-18T00:14:35;7.03;;;6.43;;
4903;SDS011;2467;48.142;11.616;2023-09-18T00:15:07;6.53;;;5.97;;
4903;SDS011;2467;48.142;11.616;2023-09-18T00:15:39;6.90;;;6.32;;
4903;SDS011;2467;48.142;11.616;2023-09-18T00:16:12;6.68;;;6.18;;
4903;SDS011;2467;48.142;11.616;2023-09-18T00:16:45;7.70;;;6.00;;
4903;SDS011;2467;48.142;11.616;2023-09-18T00:17:29;6.97;;;6.47;;
4903;SDS011;2467;48.142;11.616;2023-09-18T00:18:01;7.10;;;6.60;;
4903;SDS011;2467;48.142;11.616;2023-09-18T00:18:35;6.63;;;6.10;;
4903;SDS011;2467;48.142;11.616;2023-09-18T00:19:06;6.78;;;6.32;;
4903;SDS011;2467;48.142;11.616;2023-09-18T00:19:40;6.63;;;5.97;;
4903;SDS011;2467;48.142;11.616;2023-09-18T00:20:12;7.40;;;6.80;;
4903;SDS011;2467;48.142;11.616;2023-09-18T00:20:48;6.20;;;5.80;;
4903;SDS011;2467;48.142;11.616;2023-09-18T00:21:20;6.43;;;5.93;;
4903;SDS011;2467;48.142;11.616;2023-09-18T00:21:52;6.47;;;5.97;;
4903;SDS011;2467;48.142;11.616;2023-09-18T00:22:25;6.60;;;6.00;;
4903;SDS011;2467;48.142;11.616;2023-09-18T00:22:59;6.72;;;6.13;;
4903;SDS011;2467;48.142;11.616;2023-09-18T00:23:31;6.63;;;6.13;;
4903;SDS011;2467;48.142;11.616;2023-09-18T00:24:03;7.03;;;6.43;;
4903;SDS011;2467;48.142;11.616;2023-09-18T00:24:35;6.53;;;6.10;;
4903;SDS011;2467;48.142;11.616;2023-09-18T00:25:08;6.38;;;5.88;;
4903;SDS011;2467;48.142;11.616;2023-09-18T00:25:40;6.90;;;6.40;;
4903;SDS011;2467;48.142;11.616;2023-09-18T00:26:13;6.10;;;5.60;;
4903;SDS011;2467;48.142;11.616;2023-09-18T00:26:45;6.95;;;6.30;;
4903;SDS011;2467;48.142;11.616;2023-09-18T00:27:19;6.47;;;5.90;;
4903;SDS011;2467;48.142;11.616;2023-09-18T00:27:51;6.20;;;5.72;;
4903;SDS011;2467;48.142;11.616;2023-09-18T00:28:23;6.95;;;6.45;;
4903;SDS011;2467;48.142;11.616;2023-09-18T00:28:55;6.20;;;5.68;;
4903;SDS011;2467;48.142;11.616;2023-09-18T00:29:27;6.63;;;6.03;;
4903;SDS011;2467;48.142;11.616;2023-09-18T00:29:59;7.60;;;6.90;;
4903;SDS011;2467;48.142;11.616;2023-09-18T00:30:32;8.07;;;6.63;;
4903;SDS011;2467;48.142;11.616;2023-09-18T00:31:04;6.85;;;6.25;;
4903;SDS011;2467;48.142;11.616;2023-09-18T00:31:37;5.85;;;5.35;;
4903;SDS011;2467;48.142;11.616;2023-09-18T00:32:09;7.28;;;6.68;;
4903;SDS011;2467;48.142;11.616;2023-09-18T00:32:42;5.88;;;5.30;;
4903;SDS011;2467;48.142;11.616;2023-09-18T00:33:14;6.78;;;6.07;;
4903;SDS011;2467;48.142;11.616;2023-09-18T00:33:46;6.20;;;5.80;;
4903;SDS011;2467;48.142;11.616;2023-09-18T00:34:19;6.45;;;6.00;;
4903;SDS011;2467;48.142;11.616;2023-09-18T00:34:52;5.30;;;4.95;;
4903;SDS011;2467;48.142;11.616;2023-09-18T00:35:24;7.00;;;6.50;;
4903;SDS011;2467;48.142;11.616;2023-09-18T00:35:57;6.43;;;5.82;;
4903;SDS011;2467;48.142;11.616;2023-09-18T00:36:29;6.78;;;6.18;;
4903;SDS011;2467;48.142;11.616;2023-09-18T00:37:01;5.90;;;5.50;;
4903;SDS011;2467;48.142;11.616;2023-09-18T00:37:34;5.93;;;5.53;;
4903;SDS011;2467;48.142;11.616;2023-09-18T00:38:07;6.00;;;5.40;;
4903;SDS011;2467;48.142;11.616;2023-09-18T00:38:40;5.95;;;5.55;;
4903;SDS011;2467;48.142;11.616;2023-09-18T00:39:12;5.95;;;5.45;;
4903;SDS011;2467;48.142;11.616;2023-09-18T00:39:45;6.50;;;5.45;;
4903;SDS011;2467;48.142;11.616;2023-09-18T00:40:18;6.63;;;5.68;;
4903;SDS011;2467;48.142;11.616;2023-09-18T00:40:50;6.20;;;5.68;;
4903;SDS011;2467;48.142;11.616;2023-09-18T00:41:22;6.00;;;5.50;;
4903;SDS011;2467;48.142;11.616;2023-09-18T00:41:54;6.57;;;6.07;;
4903;SDS011;2467;48.142;11.616;2023-09-18T00:42:27;5.90;;;5.50;;
4903;SDS011;2467;48.142;11.616;2023-09-18T00:42:59;6.13;;;5.63;;
4903;SDS011;2467;48.142;11.616;2023-09-18T00:43:31;6.45;;;5.88;;
4903;SDS011;2467;48.142;11.616;2023-09-18T00:44:03;6.45;;;5.85;;
4903;SDS011;2467;48.142;11.616;2023-09-18T00:44:37;5.68;;;5.28;;
4903;SDS011;2467;48.142;11.616;2023-09-18T00:45:09;5.50;;;5.10;;
4903;SDS011;2467;48.142;11.616;2023-09-18T00:45:41;5.90;;;5.47;;
4903;SDS011;2467;48.142;11.616;2023-09-18T00:46:15;5.30;;;4.82;;
4903;SDS011;2467;48.142;11.616;2023-09-18T00:46:49;6.47;;;5.65;;
4903;SDS011;2467;48.142;11.616;2023-09-18T00:47:21;5.22;;;4.82;;
4903;SDS011;2467;48.142;11.616;2023-09-18T00:47:53;6.18;;;5.75;;
4903;SDS011;2467;48.142;11.616;2023-09-18T00:48:25;5.60;;;5.10;;
4903;SDS011;2467;48.142;11.616;2023-09-18T00:48:59;6.28;;;5.88;;
4903;SDS011;2467;48.142;11.616;2023-09-18T00:49:31;6.10;;;5.53;;
4903;SDS011;2467;48.142;11.616;2023-09-18T00:50:06;5.47;;;5.07;;
4903;SDS011;2467;48.142;11.616;2023-09-18T00:50:41;6.07;;;5.57;;
4903;SDS011;2467;48.142;11.616;2023-09-18T00:51:15;5.03;;;4.50;;
4903;SDS011;2467;48.142;11.616;2023-09-18T00:51:48;5.60;;;5.15;;
4903;SDS011;2467;48.142;11.616;2023-09-18T00:52:21;6.05;;;5.38;;
4903;SDS011;2467;48.142;11.616;2023-09-18T00:52:55;6.20;;;5.70;;
4903;SDS011;2467;48.142;11.616;2023-09-18T00:53:28;5.75;;;5.25;;
4903;SDS011;2467;48.142;11.616;2023-09-18T00:53:59;5.57;;;5.10;;
4903;SDS011;2467;48.142;11.616;2023-09-18T00:54:32;5.82;;;5.43;;
4903;SDS011;2467;48.142;11.616;2023-09-18T00:55:06;6.20;;;5.80;;
4903;SDS011;2467;48.142;11.616;2023-09-18T00:55:39;6.07;;;5.57;;
4903;SDS011;2467;48.142;11.616;2023-09-18T00:56:11;5.28;;;4.97;;
4903;SDS011;2467;48.142;11.616;2023-09-18T00:56:43;6.03;;;5.53;;
4903;SDS011;2467;48.142;11.616;2023-09-18T00:57:16;5.57;;;5.03;;
4903;SDS011;2467;48.142;11.616;2023-09-18T00:57:49;5.78;;;5.38;;
4903;SDS011;2467;48.142;11.616;2023-09-18T00:58:21;5.50;;;5.10;;
4903;SDS011;2467;48.142;11.616;2023-09-18T00:58:54;5.15;;;4.75;;
4903;SDS011;2467;48.142;11.616;2023-09-18T00:59:26;5.15;;;4.85;;
4903;SDS011;2467;48.142;11.616;2023-09-18T00:59:58;5.05;;;4.70;;
4903;SDS011;2467;48.142;11.616;2023-09-18T01:00:31;5.93;;;5.43;;
4903;SDS011;2467;48.142;11.616;2023-09-18T01:01:03;5.78;;;5.38;;
4903;SDS011;2467;48.142;11.616;2023-09-18T01:01:35;5.43;;;4.80;;
4903;SDS011;2467;48.142;11.616;2023-09-18T01:02:07;6.03;;;5.47;;
4903;SDS011;2467;48.142;11.616;2023-09-18T01:02:40;5.72;;;5.22;;
4903;SDS011;2467;48.142;11.616;2023-09-18T01:03:13;6.30;;;5.70;;
4903;SDS011;2467;48.142;11.616;2023-09-18T01:03:49;5.57;;;5.18;;
4903;SDS011;2467;48.142;11.616;2023-09-18T01:04:22;7.05;;;6.07;;
4903;SDS011;2467;48.142;11.616;2023-09-18T01:04:57;5.85;;;5.35;;
4903;SDS011;2467;48.142;11.616;2023-09-18T01:05:31;5.35;;;4.95;;
4903;SDS011;2467;48.142;11.616;2023-09-18T01:06:04;5.28;;;4.88;;
4903;SDS011;2467;48.142;11.616;2023-09-18T01:06:36;5.82;;;4.60;;
4903;SDS011;2467;48.142;11.616;2023-09-18T01:07:09;5.55;;;5.15;;
4903;SDS011;2467;48.142;11.616;2023-09-18T01:07:42;5.55;;;5.07;;
4903;SDS011;2467;48.142;11.616;2023-09-18T01:08:14;4.40;;;4.03;;
4903;SDS011;2467;48.142;11.616;2023-09-18T01:08:46;5.82;;;5.35;;
4903;SDS011;2467;48.142;11.616;2023-09-18T01:09:21;5.00;;;4.60;;
4903;SDS011;2467;48.142;11.616;2023-09-18T01:09:53;5.68;;;5.28;;
4903;SDS011;2467;48.142;11.616;2023-09-18T01:10:27;5.60;;;5.20;;
4903;SDS011;2467;48.142;11.616;2023-09-18T01:11:05;5.20;;;4.90;;
4903;SDS011;2467;48.142;11.616;2023-09-18T01:11:43;5.45;;;4.95;;
4903;SDS011;2467;48.142;11.616;2023-09-18T01:12:23;4.82;;;4.53;;
4903;SDS011;2467;48.142;11.616;2023-09-18T01:13:03;5.85;;;5.35;;
4903;SDS011;2467;48.142;11.616;2023-09-18T01:13:45;4.78;;;4.35;;
4903;SDS011;2467;48.142;11.616;2023-09-18T01:14:25;4.85;;;4.55;;
4903;SDS011;2467;48.142;11.616;2023-09-18T01:15:07;4.55;;;4.25;;
4903;SDS011;2467;48.142;11.616;2023-09-18T01:15:43;6.07;;;5.57;;
4903;SDS011;2467;48.142;11.616;2023-09-18T01:16:24;5.45;;;5.05;;
4903;SDS011;2467;48.142;11.616;2023-09-18T01:17:01;6.28;;;4.57;;
4903;SDS011;2467;48.142;11.616;2023-09-18T01:17:35;5.20;;;4.50;;
4903;SDS011;2467;48.142;11.616;2023-09-18T01:18:09;6.63;;;4.85;;
4903;SDS011;2467;48.142;11.616;2023-09-18T01:18:48;4.63;;;4.25;;
4903;SDS011;2467;48.142;11.616;2023-09-18T01:19:37;5.13;;;4.45;;
4903;SDS011;2467;48.142;11.616;2023-09-18T01:20:10;5.93;;;3.95;;
4903;SDS011;2467;48.142;11.616;2023-09-18T01:20:45;4.85;;;4.45;;
4903;SDS011;2467;48.142;11.616;2023-09-18T01:21:18;5.60;;;4.50;;
4903;SDS011;2467;48.142;11.616;2023-09-18T01:21:50;5.30;;;4.95;;
4903;SDS011;2467;48.142;11.616;2023-09-18T01:22:22;5.35;;;4.55;;
4903;SDS011;2467;48.142;11.616;2023-09-18T01:22:57;4.30;;;4.00;;
4903;SDS011;2467;48.142;11.616;2023-09-18T01:23:29;5.40;;;4.90;;
4903;SDS011;2467;48.142;11.616;2023-09-18T01:24:01;8.65;;;5.22;;
4903;SDS011;2467;48.142;11.616;2023-09-18T01:24:33;4.93;;;4.53;;
4903;SDS011;2467;48.142;11.616;2023-09-18T01:25:05;4.65;;;4.35;;
4903;SDS011;2467;48.142;11.616;2023-09-18T01:25:39;5.28;;;4.80;;
4903;SDS011;2467;48.142;11.616;2023-09-18T01:26:11;5.47;;;4.70;;
4903;SDS011;2467;48.142;11.616;2023-09-18T01:26:42;4.53;;;4.10;;
4903;SDS011;2467;48.142;11.616;2023-09-18T01:27:15;5.40;;;5.00;;
4903;SDS011;2467;48.142;11.616;2023-09-18T01:27:50;5.07;;;4.47;;
4903;SDS011;2467;48.142;11.616;2023-09-18T01:28:23;4.53;;;4.13;;
4903;SDS011;2467;48.142;11.616;2023-09-18T01:28:55;5.53;;;4.88;;
4903;SDS011;2467;48.142;11.616;2023-09-18T01:29:27;4.40;;;4.00;;
4903;SDS011;2467;48.142;11.616;2023-09-18T01:30:00;4.70;;;4.30;;
4903;SDS011;2467;48.142;11.616;2023-09-18T01:30:32;4.60;;;4.30;;
4903;SDS011;2467;48.142;11.616;2023-09-18T01:31:05;5.07;;;4.68;;
4903;SDS011;2467;48.142;11.616;2023-09-18T01:31:39;4.30;;;3.90;;
4903;SDS011;2467;48.142;11.616;2023-09-18T01:32:11;4.15;;;3.85;;
4903;SDS011;2467;48.142;11.616;2023-09-18T01:32:43;4.90;;;4.45;;
4903;SDS011;2467;48.142;11.616;2023-09-18T01:33:17;3.80;;;3.50;;
4903;SDS011;2467;48.142;11.616;2023-09-18T01:33:51;5.05;;;4.20;;
4903;SDS011;2467;48.142;11.616;2023-09-18T01:34:25;8.00;;;4.55;;
4903;SDS011;2467;48.142;11.616;2023-09-18T01:35:03;4.50;;;4.07;;
4903;SDS011;2467;48.142;11.616;2023-09-18T01:35:38;4.18;;;3.40;;
4903;SDS011;2467;48.142;11.616;2023-09-18T01:36:11;4.10;;;3.78;;
4903;SDS011;2467;48.142;11.616;2023-09-18T01:36:44;4.35;;;4.05;;
4903;SDS011;2467;48.142;11.616;2023-09-18T01:37:18;4.78;;;4.20;;
4903;SDS011;2467;48.142;11.616;2023-09-18T01:37:52;4.15;;;3.85;;
4903;SDS011;2467;48.142;11.616;2023-09-18T01:38:26;4.25;;;3.85;;
4903;SDS011;2467;48.142;11.616;2023-09-18T01:38:59;4.85;;;4.30;;
4903;SDS011;2467;48.142;11.616;2023-09-18T01:39:32;4.50;;;3.67;;
4903;SDS011;2467;48.142;11.616;2023-09-18T01:40:07;4.25;;;3.60;;
4903;SDS011;2467;48.142;11.616;2023-09-18T01:40:39;5.50;;;4.40;;
4903;SDS011;2467;48.142;11.616;2023-09-18T01:41:12;3.83;;;3.53;;
4903;SDS011;2467;48.142;11.616;2023-09-18T01:41:45;3.70;;;3.40;;
4903;SDS011;2467;48.142;11.616;2023-09-18T01:42:18;4.78;;;4.20;;
4903;SDS011;2467;48.142;11.616;2023-09-18T01:42:50;4.75;;;4.35;;
4903;SDS011;2467;48.142;11.616;2023-09-18T01:43:22;4.03;;;3.72;;
4903;SDS011;2467;48.142;11.616;2023-09-18T01:43:55;4.10;;;3.80;;
4903;SDS011;2467;48.142;11.616;2023-09-18T01:44:27;3.70;;;3.40;;
4903;SDS011;2467;48.142;11.616;2023-09-18T01:44:59;6.43;;;4.07;;
4903;SDS011;2467;48.142;11.616;2023-09-18T01:45:32;5.03;;;3.42;;
4903;SDS011;2467;48.142;11.616;2023-09-18T01:46:05;3.47;;;3.22;;
4903;SDS011;2467;48.142;11.616;2023-09-18T01:46:37;4.35;;;4.05;;
4903;SDS011;2467;48.142;11.616;2023-09-18T01:47:11;4.68;;;4.28;;
4903;SDS011;2467;48.142;11.616;2023-09-18T01:47:45;4.53;;;3.88;;
4903;SDS011;2467;48.142;11.616;2023-09-18T01:48:18;5.88;;;4.45;;
4903;SDS011;2467;48.142;11.616;2023-09-18T01:48:50;4.22;;;3.70;;
4903;SDS011;2467;48.142;11.616;2023-09-18T01:49:27;3.60;;;3.33;;
4903;SDS011;2467;48.142;11.616;2023-09-18T01:50:02;4.28;;;3.97;;
4903;SDS011;2467;48.142;11.616;2023-09-18T01:50:37;3.40;;;3.10;;
4903;SDS011;2467;48.142;11.616;2023-09-18T01:51:13;5.40;;;4.75;;
4903;SDS011;2467;48.142;11.616;2023-09-18T01:51:45;7.40;;;4.63;;
4903;SDS011;2467;48.142;11.616;2023-09-18T01:52:17;3.47;;;3.22;;
4903;SDS011;2467;48.142;11.616;2023-09-18T01:52:49;4.40;;;4.00;;
4903;SDS011;2467;48.142;11.616;2023-09-18T01:53:21;6.95;;;4.20;;
4903;SDS011;2467;48.142;11.616;2023-09-18T01:53:55;4.10;;;3.80;;
4903;SDS011;2467;48.142;11.616;2023-09-18T01:54:27;4.00;;;3.63;;
4903;SDS011;2467;48.142;11.616;2023-09-18T01:55:00;4.03;;;3.72;;
4903;SDS011;2467;48.142;11.616;2023-09-18T01:55:32;5.80;;;4.22;;
4903;SDS011;2467;48.142;11.616;2023-09-18T01:56:04;3.85;;;3.55;;
4903;SDS011;2467;48.142;11.616;2023-09-18T01:56:36;3.72;;;3.42;;
4903;SDS011;2467;48.142;11.616;2023-09-18T01:57:09;4.57;;;3.35;;
4903;SDS011;2467;48.142;11.616;2023-09-18T01:57:41;5.10;;;3.88;;
4903;SDS011;2467;48.142;11.616;2023-09-18T01:58:13;4.75;;;3.30;;
4903;SDS011;2467;48.142;11.616;2023-09-18T01:58:47;4.82;;;4.45;;
4903;SDS011;2467;48.142;11.616;2023-09-18T01:59:21;3.85;;;3.55;;
4903;SDS011;2467;48.142;11.616;2023-09-18T01:59:54;4.38;;;3.97;;
4903;SDS011;2467;48.142;11.616;2023-09-18T02:00:26;3.85;;;3.55;;
4903;SDS011;2467;48.142;11.616;2023-09-18T02:01:00;3.65;;;3.45;;
4903;SDS011;2467;48.142;11.616;2023-09-18T02:01:33;3.80;;;3.40;;
4903;SDS011;2467;48.142;11.616;2023-09-18T02:02:07;3.70;;;3.33;;
4903;SDS011;2467;48.142;11.616;2023-09-18T02:02:45;6.05;;;3.58;;
4903;SDS011;2467;48.142;11.616;2023-09-18T02:03:30;4.18;;;3.88;;
4903;SDS011;2467;48.142;11.616;2023-09-18T02:04:22;3.72;;;3.42;;
4903;SDS011;2467;48.142;11.616;2023-09-18T02:05:14;4.03;;;3.13;;
4903;SDS011;2467;48.142;11.616;2023-09-18T02:05:47;4.03;;;3.72;;
4903;SDS011;2467;48.142;11.616;2023-09-18T02:06:19;3.60;;;3.30;;
4903;SDS011;2467;48.142;11.616;2023-09-18T02:06:51;4.28;;;3.42;;
4903;SDS011;2467;48.142;11.616;2023-09-18T02:07:24;3.50;;;3.20;;
4903;SDS011;2467;48.142;11.616;2023-09-18T02:07:57;5.13;;;3.92;;
4903;SDS011;2467;48.142;11.616;2023-09-18T02:08:29;3.40;;;3.10;;
4903;SDS011;2467;48.142;11.616;2023-09-18T02:09:02;4.10;;;3.70;;
4903;SDS011;2467;48.142;11.616;2023-09-18T02:09:35;4.07;;;3.72;;
4903;SDS011;2467;48.142;11.616;2023-09-18T02:10:08;4.70;;;3.38;;
4903;SDS011;2467;48.142;11.616;2023-09-18T02:10:40;5.53;;;5.22;;
4903;SDS011;2467;48.142;11.616;2023-09-18T02:11:12;5.80;;;4.07;;
4903;SDS011;2467;48.142;11.616;2023-09-18T02:11:44;3.90;;;3.60;;
4903;SDS011;2467;48.142;11.616;2023-09-18T02:12:19;5.70;;;4.63;;
4903;SDS011;2467;48.142;11.616;2023-09-18T02:12:51;4.30;;;3.47;;
4903;SDS011;2467;48.142;11.616;2023-09-18T02:13:23;5.05;;;3.95;;
4903;SDS011;2467;48.142;11.616;2023-09-18T02:13:54;4.05;;;3.72;;
4903;SDS011;2467;48.142;11.616;2023-09-18T02:14:28;4.45;;;4.15;;
4903;SDS011;2467;48.142;11.616;2023-09-18T02:15:02;4.28;;;3.60;;
4903;SDS011;2467;48.142;11.616;2023-09-18T02:15:37;4.82;;;3.80;;
4903;SDS011;2467;48.142;11.616;2023-09-18T02:16:10;4.53;;;4.22;;
4903;SDS011;2467;48.142;11.616;2023-09-18T02:16:42;4.40;;;3.47;;
4903;SDS011;2467;48.142;11.616;2023-09-18T02:17:15;4.47;;;3.47;;
4903;SDS011;2467;48.142;11.616;2023-09-18T02:17:47;3.65;;;3.35;;
4903;SDS011;2467;48.142;11.616;2023-09-18T02:18:20;5.13;;;4.28;;
4903;SDS011;2467;48.142;11.616;2023-09-18T02:18:54;3.90;;;3.45;;
4903;SDS011;2467;48.142;11.616;2023-09-18T02:19:26;4.15;;;3.80;;
4903;SDS011;2467;48.142;11.616;2023-09-18T02:19:59;4.03;;;3.65;;
4903;SDS011;2467;48.142;11.616;2023-09-18T02:20:39;4.28;;;3.88;;
4903;SDS011;2467;48.142;11.616;2023-09-18T02:21:18;3.35;;;3.15;;
4903;SDS011;2467;48.142;11.616;2023-09-18T02:21:50;3.90;;;3.60;;
4903;SDS011;2467;48.142;11.616;2023-09-18T02:22:23;3.95;;;3.47;;
4903;SDS011;2467;48.142;11.616;2023-09-18T02:22:55;5.18;;;3.72;;
4903;SDS011;2467;48.142;11.616;2023-09-18T02:23:27;5.18;;;4.10;;
4903;SDS011;2467;48.142;11.616;2023-09-18T02:23:59;4.47;;;4.07;;
4903;SDS011;2467;48.142;11.616;2023-09-18T02:24:34;4.13;;;3.72;;
4903;SDS011;2467;48.142;11.616;2023-09-18T02:25:06;4.85;;;4.18;;
4903;SDS011;2467;48.142;11.616;2023-09-18T02:25:39;7.35;;;3.92;;
4903;SDS011;2467;48.142;11.616;2023-09-18T02:26:11;5.60;;;3.65;;
4903;SDS011;2467;48.142;11.616;2023-09-18T02:26:44;4.28;;;3.88;;
4903;SDS011;2467;48.142;11.616;2023-09-18T02:27:16;5.95;;;3.75;;
4903;SDS011;2467;48.142;11.616;2023-09-18T02:27:49;3.90;;;3.60;;
4903;SDS011;2467;48.142;11.616;2023-09-18T02:28:22;4.70;;;3.00;;
4903;SDS011;2467;48.142;11.616;2023-09-18T02:28:54;4.30;;;3.95;;
4903;SDS011;2467;48.142;11.616;2023-09-18T02:29:29;4.28;;;3.97;;
4903;SDS011;2467;48.142;11.616;2023-09-18T02:30:01;3.97;;;3.67;;
4903;SDS011;2467;48.142;11.616;2023-09-18T02:30:34;3.50;;;3.17;;
4903;SDS011;2467;48.142;11.616;2023-09-18T02:31:06;3.85;;;3.55;;
4903;SDS011;2467;48.142;11.616;2023-09-18T02:31:39;5.35;;;3.95;;
4903;SDS011;2467;48.142;11.616;2023-09-18T02:32:12;5.18;;;3.40;;
4903;SDS011;2467;48.142;11.616;2023-09-18T02:32:44;4.28;;;3.88;;
4903;SDS011;2467;48.142;11.616;2023-09-18T02:33:16;4.32;;;3.65;;
4903;SDS011;2467;48.142;11.616;2023-09-18T02:33:48;4.57;;;4.18;;
4903;SDS011;2467;48.142;11.616;2023-09-18T02:34:20;3.75;;;3.45;;
4903;SDS011;2467;48.142;11.616;2023-09-18T02:34:53;4.95;;;3.60;;
4903;SDS011;2467;48.142;11.616;2023-09-18T02:35:25;6.13;;;4.18;;
4903;SDS011;2467;48.142;11.616;2023-09-18T02:35:57;3.33;;;3.00;;
4903;SDS011;2467;48.142;11.616;2023-09-18T02:36:29;4.20;;;3.67;;
4903;SDS011;2467;48.142;11.616;2023-09-18T02:37:02;4.68;;;3.85;;
4903;SDS011;2467;48.142;11.616;2023-09-18T02:37:34;4.55;;;3.75;;
4903;SDS011;2467;48.142;11.616;2023-09-18T02:38:06;4.07;;;3.78;;
4903;SDS011;2467;48.142;11.616;2023-09-18T02:38:38;3.95;;;3.63;;
4903;SDS011;2467;48.142;11.616;2023-09-18T02:39:11;3.97;;;3.67;;
4903;SDS011;2467;48.142;11.616;2023-09-18T02:39:45;4.88;;;3.60;;
4903;SDS011;2467;48.142;11.616;2023-09-18T02:40:16;4.50;;;4.10;;
4903;SDS011;2467;48.142;11.616;2023-09-18T02:40:48;4.88;;;3.92;;
4903;SDS011;2467;48.142;11.616;2023-09-18T02:41:20;3.92;;;3.55;;
4903;SDS011;2467;48.142;11.616;2023-09-18T02:41:53;4.68;;;3.92;;
4903;SDS011;2467;48.142;11.616;2023-09-18T02:42:25;5.93;;;3.88;;
4903;SDS011;2467;48.142;11.616;2023-09-18T02:42:57;3.70;;;3.40;;
4903;SDS011;2467;48.142;11.616;2023-09-18T02:43:29;3.95;;;3.65;;
4903;SDS011;2467;48.142;11.616;2023-09-18T02:44:02;5.00;;;3.83;;
4903;SDS011;2467;48.142;11.616;2023-09-18T02:44:34;4.10;;;3.80;;
4903;SDS011;2467;48.142;11.616;2023-09-18T02:45:06;5.93;;;3.45;;
4903;SDS011;2467;48.142;11.616;2023-09-18T02:45:39;4.57;;;3.65;;
4903;SDS011;2467;48.142;11.616;2023-09-18T02:46:12;4.00;;;3.67;;
4903;SDS011;2467;48.142;11.616;2023-09-18T02:46:44;6.60;;;4.20;;
4903;SDS011;2467;48.142;11.616;2023-09-18T02:47:16;3.70;;;3.40;;
4903;SDS011;2467;48.142;11.616;2023-09-18T02:47:49;3.70;;;3.40;;
4903;SDS011;2467;48.142;11.616;2023-09-18T02:48:22;5.30;;;3.85;;
4903;SDS011;2467;48.142;11.616;2023-09-18T02:48:54;3.75;;;3.45;;
4903;SDS011;2467;48.142;11.616;2023-09-18T02:49:26;4.00;;;3.70;;
4903;SDS011;2467;48.142;11.616;2023-09-18T02:49:58;3.65;;;3.35;;
4903;SDS011;2467;48.142;11.616;2023-09-18T02:50:31;4.20;;;3.90;;
4903;SDS011;2467;48.142;11.616;2023-09-18T02:51:03;4.95;;;4.05;;
4903;SDS011;2467;48.142;11.616;2023-09-18T02:51:35;4.20;;;3.80;;
4903;SDS011;2467;48.142;11.616;2023-09-18T02:52:07;3.75;;;3.38;;
4903;SDS011;2467;48.142;11.616;2023-09-18T02:52:40;5.05;;;3.60;;
4903;SDS011;2467;48.142;11.616;2023-09-18T02:53:16;4.18;;;3.78;;
4903;SDS011;2467;48.142;11.616;2023-09-18T02:53:50;4.72;;;4.25;;
4903;SDS011;2467;48.142;11.616;2023-09-18T02:54:22;4.28;;;3.88;;
4903;SDS011;2467;48.142;11.616;2023-09-18T02:54:56;3.55;;;3.25;;
4903;SDS011;2467;48.142;11.616;2023-09-18T02:55:28;3.60;;;3.30;;
4903;SDS011;2467;48.142;11.616;2023-09-18T02:55:59;3.95;;;3.65;;
4903;SDS011;2467;48.142;11.616;2023-09-18T02:56:31;4.50;;;4.10;;
4903;SDS011;2467;48.142;11.616;2023-09-18T02:57:04;4.68;;;4.28;;
4903;SDS011;2467;48.142;11.616;2023-09-18T02:57:36;5.55;;;4.00;;
4903;SDS011;2467;48.142;11.616;2023-09-18T02:58:08;4.10;;;3.80;;
4903;SDS011;2467;48.142;11.616;2023-09-18T02:58:41;3.83;;;3.53;;
4903;SDS011;2467;48.142;11.616;2023-09-18T02:59:14;4.07;;;3.65;;
4903;SDS011;2467;48.142;11.616;2023-09-18T02:59:46;4.20;;;3.90;;
4903;SDS011;2467;48.142;11.616;2023-09-18T03:00:18;3.90;;;3.60;;
4903;SDS011;2467;48.142;11.616;2023-09-18T03:01:07;4.60;;;4.20;;
4903;SDS011;2467;48.142;11.616;2023-09-18T03:01:40;4.78;;;3.63;;
4903;SDS011;2467;48.142;11.616;2023-09-18T03:02:12;4.30;;;3.90;;
4903;SDS011;2467;48.142;11.616;2023-09-18T03:02:44;4.43;;;4.10;;
4903;SDS011;2467;48.142;11.616;2023-09-18T03:03:16;3.92;;;3.50;;
4903;SDS011;2467;48.142;11.616;2023-09-18T03:03:49;4.40;;;4.00;;
4903;SDS011;2467;48.142;11.616;2023-09-18T03:04:21;5.03;;;4.00;;
4903;SDS011;2467;48.142;11.616;2023-09-18T03:04:53;4.10;;;3.78;;
4903;SDS011;2467;48.142;11.616;2023-09-18T03:05:26;3.97;;;3.67;;
4903;SDS011;2467;48.142;11.616;2023-09-18T03:06:01;4.28;;;3.85;;
4903;SDS011;2467;48.142;11.616;2023-09-18T03:06:34;2.95;;;2.75;;
4903;SDS011;2467;48.142;11.616;2023-09-18T03:07:12;4.25;;;3.95;;
4903;SDS011;2467;48.142;11.616;2023-09-18T03:07:45;4.60;;;3.20;;
4903;SDS011;2467;48.142;11.616;2023-09-18T03:08:17;4.55;;;3.85;;
4903;SDS011;2467;48.142;11.616;2023-09-18T03:08:49;4.25;;;3.70;;
4903;SDS011;2467;48.142;11.616;2023-09-18T03:09:22;5.45;;;4.70;;
4903;SDS011;2467;48.142;11.616;2023-09-18T03:09:55;5.07;;;3.75;;
4903;SDS011;2467;48.142;11.616;2023-09-18T03:10:27;6.05;;;4.10;;
4903;SDS011;2467;48.142;11.616;2023-09-18T03:10:59;3.70;;;3.38;;
4903;SDS011;2467;48.142;11.616;2023-09-18T03:11:32;4.20;;;3.90;;
4903;SDS011;2467;48.142;11.616;2023-09-18T03:12:04;4.10;;;3.80;;
4903;SDS011;2467;48.142;11.616;2023-09-18T03:12:36;4.45;;;3.60;;
4903;SDS011;2467;48.142;11.616;2023-09-18T03:13:09;3.85;;;3.17;;
4903;SDS011;2467;48.142;11.616;2023-09-18T03:13:42;4.13;;;3.83;;
4903;SDS011;2467;48.142;11.616;2023-09-18T03:14:16;4.38;;;4.07;;
4903;SDS011;2467;48.142;11.616;2023-09-18T03:14:48;4.38;;;4.03;;
4903;SDS011;2467;48.142;11.616;2023-09-18T03:15:20;4.07;;;3.72;;
4903;SDS011;2467;48.142;11.616;2023-09-18T03:15:53;3.97;;;3.67;;
4903;SDS011;2467;48.142;11.616;2023-09-18T03:16:25;3.80;;;3.50;;
4903;SDS011;2467;48.142;11.616;2023-09-18T03:16:57;4.05;;;3.70;;
4903;SDS011;2467;48.142;11.616;2023-09-18T03:17:30;4.40;;;4.00;;
4903;SDS011;2467;48.142;11.616;2023-09-18T03:18:02;5.07;;;4.57;;
4903;SDS011;2467;48.142;11.616;2023-09-18T03:18:35;3.95;;;3.30;;
4903;SDS011;2467;48.142;11.616;2023-09-18T03:19:07;5.38;;;3.75;;
4903;SDS011;2467;48.142;11.616;2023-09-18T03:19:40;4.18;;;3.85;;
4903;SDS011;2467;48.142;11.616;2023-09-18T03:20:14;4.50;;;4.00;;
4903;SDS011;2467;48.142;11.616;2023-09-18T03:20:46;3.95;;;3.63;;
4903;SDS011;2467;48.142;11.616;2023-09-18T03:21:19;6.07;;;4.32;;
4903;SDS011;2467;48.142;11.616;2023-09-18T03:21:52;4.20;;;3.75;;
4903;SDS011;2467;48.142;11.616;2023-09-18T03:22:25;3.95;;;3.60;;
4903;SDS011;2467;48.142;11.616;2023-09-18T03:22:57;4.50;;;4.10;;
4903;SDS011;2467;48.142;11.616;2023-09-18T03:23:30;5.05;;;4.55;;